sensor_id;sensor_type;location;lat;lon;timestamp;temperature;humidity
17152;DHT22;8691;50.828;4.700;2023-11-21T00:01:57;9.30;99.90
17152;DHT22;8691;50.828;4.700;2023-11-21T00:04:23;9.30;99.90
17152;DHT22;8691;50.828;4.700;2023-11-21T00:06:50;9.30;99.90
17152;DHT22;8691;50.828;4.700;2023-11-21T00:09:17;9.40;99.90
17152;DHT22;8691;50.828;4.700;2023-11-21T00:11:44;9.40;99.90
17152;DHT22;8691;50.828;4.700;2023-11-21T00:14:11;9.40;99.90
17152;DHT22;8691;50.828;4.700;2023-11-21T00:16:39;9.30;99.90
17152;DHT22;8691;50.828;4.700;2023-11-21T00:19:05;9.30;99.90
17152;DHT22;8691;50.828;4.700;2023-11-21T00:21:32;9.30;99.90
17152;DHT22;8691;50.828;4.700;2023-11-21T00:23:59;9.30;99.90
17152;DHT22;8691;50.828;4.700;2023-11-21T00:26:27;9.30;99.90
17152;DHT22;8691;50.828;4.700;2023-11-21T00:28:54;9.30;99.90
17152;DHT22;8691;50.828;4.700;2023-11-21T00:31:21;9.30;99.90
17152;DHT22;8691;50.828;4.700;2023-11-21T00:33:48;9.20;99.90
17152;DHT22;8691;50.828;4.700;2023-11-21T00:36:14;9.20;99.90
17152;DHT22;8691;50.828;4.700;2023-11-21T00:38:42;9.20;99.90
17152;DHT22;8691;50.828;4.700;2023-11-21T00:41:09;9.20;99.90
17152;DHT22;8691;50.828;4.700;2023-11-21T00:43:36;9.10;99.90
17152;DHT22;8691;50.828;4.700;2023-11-21T00:46:05;9.10;99.90
17152;DHT22;8691;50.828;4.700;2023-11-21T00:48:32;9.10;99.90
17152;DHT22;8691;50.828;4.700;2023-11-21T00:50:59;9.10;99.90
17152;DHT22;8691;50.828;4.700;2023-11-21T00:53:26;9.20;99.90
17152;DHT22;8691;50.828;4.700;2023-11-21T00:55:53;9.20;99.90
17152;DHT22;8691;50.828;4.700;2023-11-21T00:58:21;9.20;99.90
17152;DHT22;8691;50.828;4.700;2023-11-21T01:00:48;9.20;99.90
17152;DHT22;8691;50.828;4.700;2023-11-21T01:03:14;9.10;99.90
17152;DHT22;8691;50.828;4.700;2023-11-21T01:05:41;9.10;99.90
17152;DHT22;8691;50.828;4.700;2023-11-21T01:08:08;9.00;99.90
17152;DHT22;8691;50.828;4.700;2023-11-21T01:10:35;8.80;99.90
17152;DHT22;8691;50.828;4.700;2023-11-21T01:13:02;8.70;99.90
17152;DHT22;8691;50.828;4.700;2023-11-21T01:15:29;8.60;99.90
17152;DHT22;8691;50.828;4.700;2023-11-21T01:17:55;8.50;99.90
17152;DHT22;8691;50.828;4.700;2023-11-21T01:20:23;8.40;99.90
17152;DHT22;8691;50.828;4.700;2023-11-21T01:22:49;8.30;99.90
17152;DHT22;8691;50.828;4.700;2023-11-21T01:25:16;8.20;99.90
17152;DHT22;8691;50.828;4.700;2023-11-21T01:27:43;8.20;99.90
17152;DHT22;8691;50.828;4.700;2023-11-21T01:30:10;8.10;99.90
17152;DHT22;8691;50.828;4.700;2023-11-21T01:32:37;8.10;99.90
17152;DHT22;8691;50.828;4.700;2023-11-21T01:35:04;8.00;99.90
17152;DHT22;8691;50.828;4.700;2023-11-21T01:37:31;8.00;99.90
17152;DHT22;8691;50.828;4.700;2023-11-21T01:39:57;7.90;99.90
17152;DHT22;8691;50.828;4.700;2023-11-21T01:42:24;8.00;99.90
17152;DHT22;8691;50.828;4.700;2023-11-21T01:44:51;8.00;99.90
17152;DHT22;8691;50.828;4.700;2023-11-21T01:47:18;8.00;99.90
17152;DHT22;8691;50.828;4.700;2023-11-21T01:49:45;8.00;99.90
17152;DHT22;8691;50.828;4.700;2023-11-21T01:52:12;8.10;99.90
17152;DHT22;8691;50.828;4.700;2023-11-21T01:54:39;8.10;99.90
17152;DHT22;8691;50.828;4.700;2023-11-21T01:57:06;8.30;99.90
17152;DHT22;8691;50.828;4.700;2023-11-21T01:59:35;8.30;99.90
17152;DHT22;8691;50.828;4.700;2023-11-21T02:02:01;8.30;99.90
17152;DHT22;8691;50.828;4.700;2023-11-21T02:04:28;8.30;99.90
17152;DHT22;8691;50.828;4.700;2023-11-21T02:06:55;8.30;99.90
17152;DHT22;8691;50.828;4.700;2023-11-21T02:09:27;8.40;99.90
17152;DHT22;8691;50.828;4.700;2023-11-21T02:11:54;8.40;99.90
17152;DHT22;8691;50.828;4.700;2023-11-21T02:14:21;8.40;99.90
17152;DHT22;8691;50.828;4.700;2023-11-21T02:16:50;8.40;99.90
17152;DHT22;8691;50.828;4.700;2023-11-21T02:19:20;8.40;99.90
17152;DHT22;8691;50.828;4.700;2023-11-21T02:21:47;8.50;99.90
17152;DHT22;8691;50.828;4.700;2023-11-21T02:24:14;8.50;99.90
17152;DHT22;8691;50.828;4.700;2023-11-21T02:26:41;8.50;99.90
17152;DHT22;8691;50.828;4.700;2023-11-21T02:29:07;8.40;99.90
17152;DHT22;8691;50.828;4.700;2023-11-21T02:31:34;8.40;99.90
17152;DHT22;8691;50.828;4.700;2023-11-21T02:34:01;8.40;99.90
17152;DHT22;8691;50.828;4.700;2023-11-21T02:36:28;8.40;99.90
17152;DHT22;8691;50.828;4.700;2023-11-21T02:38:55;8.40;99.90
17152;DHT22;8691;50.828;4.700;2023-11-21T02:41:22;8.50;99.90
17152;DHT22;8691;50.828;4.700;2023-11-21T02:43:49;8.50;99.90
17152;DHT22;8691;50.828;4.700;2023-11-21T02:46:16;8.50;99.90
17152;DHT22;8691;50.828;4.700;2023-11-21T02:48:43;8.60;99.90
17152;DHT22;8691;50.828;4.700;2023-11-21T02:51:09;8.60;99.90
17152;DHT22;8691;50.828;4.700;2023-11-21T02:53:36;8.60;99.90
17152;DHT22;8691;50.828;4.700;2023-11-21T02:56:04;8.60;99.90
17152;DHT22;8691;50.828;4.700;2023-11-21T02:58:31;8.60;99.90
17152;DHT22;8691;50.828;4.700;2023-11-21T03:00:58;8.60;99.90
17152;DHT22;8691;50.828;4.700;2023-11-21T03:03:25;8.60;99.90
17152;DHT22;8691;50.828;4.700;2023-11-21T03:05:51;8.60;99.90
17152;DHT22;8691;50.828;4.700;2023-11-21T03:08:18;8.60;99.90
17152;DHT22;8691;50.828;4.700;2023-11-21T03:10:45;8.60;99.90
17152;DHT22;8691;50.828;4.700;2023-11-21T03:13:12;8.60;99.90
17152;DHT22;8691;50.828;4.700;2023-11-21T03:15:39;8.60;99.90
17152;DHT22;8691;50.828;4.700;2023-11-21T03:18:05;8.60;99.90
17152;DHT22;8691;50.828;4.700;2023-11-21T03:20:32;8.60;99.90
17152;DHT22;8691;50.828;4.700;2023-11-21T03:22:59;8.60;99.90
17152;DHT22;8691;50.828;4.700;2023-11-21T03:25:26;8.60;99.90
17152;DHT22;8691;50.828;4.700;2023-11-21T03:27:53;8.60;99.90
17152;DHT22;8691;50.828;4.700;2023-11-21T03:30:20;8.60;99.90
17152;DHT22;8691;50.828;4.700;2023-11-21T03:32:48;8.60;99.90
17152;DHT22;8691;50.828;4.700;2023-11-21T03:35:14;8.60;99.90
17152;DHT22;8691;50.828;4.700;2023-11-21T03:37:41;8.60;99.90
17152;DHT22;8691;50.828;4.700;2023-11-21T03:40:08;8.60;99.90
17152;DHT22;8691;50.828;4.700;2023-11-21T03:42:35;8.60;99.90
17152;DHT22;8691;50.828;4.700;2023-11-21T03:45:02;8.70;99.90
17152;DHT22;8691;50.828;4.700;2023-11-21T03:47:29;8.70;99.90
17152;DHT22;8691;50.828;4.700;2023-11-21T03:49:56;8.70;99.90
17152;DHT22;8691;50.828;4.700;2023-11-21T03:52:23;8.70;99.90
17152;DHT22;8691;50.828;4.700;2023-11-21T03:54:49;8.70;99.90
17152;DHT22;8691;50.828;4.700;2023-11-21T03:57:16;8.70;99.90
17152;DHT22;8691;50.828;4.700;2023-11-21T03:59:43;8.70;99.90
17152;DHT22;8691;50.828;4.700;2023-11-21T04:02:10;8.70;99.90
17152;DHT22;8691;50.828;4.700;2023-11-21T04:04:37;8.70;99.90
17152;DHT22;8691;50.828;4.700;2023-11-21T04:07:04;8.70;99.90
17152;DHT22;8691;50.828;4.700;2023-11-21T04:09:31;8.70;99.90
17152;DHT22;8691;50.828;4.700;2023-11-21T04:11:58;8.70;99.90
17152;DHT22;8691;50.828;4.700;2023-11-21T04:14:25;8.70;99.90
17152;DHT22;8691;50.828;4.700;2023-11-21T04:16:52;8.80;99.90
17152;DHT22;8691;50.828;4.700;2023-11-21T04:19:19;8.80;99.90
17152;DHT22;8691;50.828;4.700;2023-11-21T04:21:46;8.80;99.90
17152;DHT22;8691;50.828;4.700;2023-11-21T04:24:13;8.80;99.90
17152;DHT22;8691;50.828;4.700;2023-11-21T04:26:40;8.70;99.90
17152;DHT22;8691;50.828;4.700;2023-11-21T04:29:06;8.80;99.90
17152;DHT22;8691;50.828;4.700;2023-11-21T04:31:33;8.80;99.90
17152;DHT22;8691;50.828;4.700;2023-11-21T04:34:00;8.80;99.90
17152;DHT22;8691;50.828;4.700;2023-11-21T04:36:27;8.80;99.90
17152;DHT22;8691;50.828;4.700;2023-11-21T04:38:54;8.80;99.90
17152;DHT22;8691;50.828;4.700;2023-11-21T04:41:21;8.90;99.90
17152;DHT22;8691;50.828;4.700;2023-11-21T04:43:49;8.90;99.90
17152;DHT22;8691;50.828;4.700;2023-11-21T04:46:16;8.90;99.90
17152;DHT22;8691;50.828;4.700;2023-11-21T04:48:43;8.90;99.90
17152;DHT22;8691;50.828;4.700;2023-11-21T04:51:11;8.90;99.90
17152;DHT22;8691;50.828;4.700;2023-11-21T04:53:41;8.90;99.90
17152;DHT22;8691;50.828;4.700;2023-11-21T04:56:09;8.90;99.90
17152;DHT22;8691;50.828;4.700;2023-11-21T04:58:35;8.90;99.90
17152;DHT22;8691;50.828;4.700;2023-11-21T05:01:03;8.90;99.90
17152;DHT22;8691;50.828;4.700;2023-11-21T05:03:31;8.90;99.90
17152;DHT22;8691;50.828;4.700;2023-11-21T05:05:59;8.90;99.90
17152;DHT22;8691;50.828;4.700;2023-11-21T05:08:26;8.90;99.90
17152;DHT22;8691;50.828;4.700;2023-11-21T05:10:53;8.90;99.90
17152;DHT22;8691;50.828;4.700;2023-11-21T05:13:20;8.90;99.90
17152;DHT22;8691;50.828;4.700;2023-11-21T05:15:47;8.90;99.90
17152;DHT22;8691;50.828;4.700;2023-11-21T05:18:14;9.00;99.90
17152;DHT22;8691;50.828;4.700;2023-11-21T05:20:41;9.00;99.90
17152;DHT22;8691;50.828;4.700;2023-11-21T05:23:08;9.00;99.90
17152;DHT22;8691;50.828;4.700;2023-11-21T05:25:34;9.00;99.90
17152;DHT22;8691;50.828;4.700;2023-11-21T05:28:01;9.00;99.90
17152;DHT22;8691;50.828;4.700;2023-11-21T05:30:28;9.00;99.90
17152;DHT22;8691;50.828;4.700;2023-11-21T05:32:55;9.00;99.90
17152;DHT22;8691;50.828;4.700;2023-11-21T05:35:23;9.00;99.90
17152;DHT22;8691;50.828;4.700;2023-11-21T05:37:50;9.00;99.90
17152;DHT22;8691;50.828;4.700;2023-11-21T05:40:18;9.00;99.90
17152;DHT22;8691;50.828;4.700;2023-11-21T05:42:45;9.00;99.90
17152;DHT22;8691;50.828;4.700;2023-11-21T05:45:12;9.00;99.90
17152;DHT22;8691;50.828;4.700;2023-11-21T05:47:43;9.00;99.90
17152;DHT22;8691;50.828;4.700;2023-11-21T05:50:10;9.00;99.90
17152;DHT22;8691;50.828;4.700;2023-11-21T05:52:36;9.00;99.90
17152;DHT22;8691;50.828;4.700;2023-11-21T05:55:04;9.10;99.90
17152;DHT22;8691;50.828;4.700;2023-11-21T05:57:37;9.00;99.90
17152;DHT22;8691;50.828;4.700;2023-11-21T06:00:07;9.00;99.90
17152;DHT22;8691;50.828;4.700;2023-11-21T06:02:36;9.00;99.90
17152;DHT22;8691;50.828;4.700;2023-11-21T06:05:03;9.00;99.90
17152;DHT22;8691;50.828;4.700;2023-11-21T06:07:31;9.00;99.90
17152;DHT22;8691;50.828;4.700;2023-11-21T06:09:59;9.00;99.90
17152;DHT22;8691;50.828;4.700;2023-11-21T06:12:26;9.00;99.90
17152;DHT22;8691;50.828;4.700;2023-11-21T06:14:53;9.10;99.90
17152;DHT22;8691;50.828;4.700;2023-11-21T06:17:20;9.10;99.90
17152;DHT22;8691;50.828;4.700;2023-11-21T06:19:46;9.10;99.90
17152;DHT22;8691;50.828;4.700;2023-11-21T06:22:13;9.10;99.90
17152;DHT22;8691;50.828;4.700;2023-11-21T06:24:40;9.10;99.90
17152;DHT22;8691;50.828;4.700;2023-11-21T06:27:07;9.10;99.90
17152;DHT22;8691;50.828;4.700;2023-11-21T06:29:34;9.10;99.90
17152;DHT22;8691;50.828;4.700;2023-11-21T06:32:01;9.20;99.90
17152;DHT22;8691;50.828;4.700;2023-11-21T06:34:28;9.20;99.90
17152;DHT22;8691;50.828;4.700;2023-11-21T06:36:54;9.20;99.90
17152;DHT22;8691;50.828;4.700;2023-11-21T06:39:21;9.20;99.90
17152;DHT22;8691;50.828;4.700;2023-11-21T06:41:51;9.20;99.90
17152;DHT22;8691;50.828;4.700;2023-11-21T06:44:18;9.20;99.90
17152;DHT22;8691;50.828;4.700;2023-11-21T06:46:45;9.30;99.90
17152;DHT22;8691;50.828;4.700;2023-11-21T06:49:12;9.30;99.90
17152;DHT22;8691;50.828;4.700;2023-11-21T06:51:39;9.30;99.90
17152;DHT22;8691;50.828;4.700;2023-11-21T06:54:07;9.30;99.90
17152;DHT22;8691;50.828;4.700;2023-11-21T06:56:34;9.30;99.90
17152;DHT22;8691;50.828;4.700;2023-11-21T06:59:01;9.40;99.90
17152;DHT22;8691;50.828;4.700;2023-11-21T07:01:28;9.40;99.90
17152;DHT22;8691;50.828;4.700;2023-11-21T07:03:55;9.40;99.90
17152;DHT22;8691;50.828;4.700;2023-11-21T07:06:22;9.40;99.90
17152;DHT22;8691;50.828;4.700;2023-11-21T07:08:49;9.40;99.90
17152;DHT22;8691;50.828;4.700;2023-11-21T07:11:16;9.40;99.90
17152;DHT22;8691;50.828;4.700;2023-11-21T07:13:43;9.40;99.90
17152;DHT22;8691;50.828;4.700;2023-11-21T07:16:11;9.40;99.90
17152;DHT22;8691;50.828;4.700;2023-11-21T07:18:37;9.40;99.90
17152;DHT22;8691;50.828;4.700;2023-11-21T07:21:04;9.40;99.90
17152;DHT22;8691;50.828;4.700;2023-11-21T07:23:31;9.40;99.90
17152;DHT22;8691;50.828;4.700;2023-11-21T07:25:58;9.40;99.90
17152;DHT22;8691;50.828;4.700;2023-11-21T07:28:25;9.40;99.90
17152;DHT22;8691;50.828;4.700;2023-11-21T07:30:52;9.40;99.90
17152;DHT22;8691;50.828;4.700;2023-11-21T07:33:19;9.50;99.90
17152;DHT22;8691;50.828;4.700;2023-11-21T07:35:46;9.50;99.90
17152;DHT22;8691;50.828;4.700;2023-11-21T07:38:13;9.50;99.90
17152;DHT22;8691;50.828;4.700;2023-11-21T07:40:39;9.50;99.90
17152;DHT22;8691;50.828;4.700;2023-11-21T07:43:06;9.60;99.90
17152;DHT22;8691;50.828;4.700;2023-11-21T07:45:33;9.60;99.90
17152;DHT22;8691;50.828;4.700;2023-11-21T07:48:00;9.70;99.90
17152;DHT22;8691;50.828;4.700;2023-11-21T07:50:28;9.70;99.90
17152;DHT22;8691;50.828;4.700;2023-11-21T07:52:55;9.70;99.90
17152;DHT22;8691;50.828;4.700;2023-11-21T07:55:23;9.70;99.90
17152;DHT22;8691;50.828;4.700;2023-11-21T07:57:50;9.70;99.90
17152;DHT22;8691;50.828;4.700;2023-11-21T08:00:17;9.70;99.90
17152;DHT22;8691;50.828;4.700;2023-11-21T08:02:44;9.80;99.90
17152;DHT22;8691;50.828;4.700;2023-11-21T08:05:11;9.90;99.90
17152;DHT22;8691;50.828;4.700;2023-11-21T08:07:38;9.80;99.90
17152;DHT22;8691;50.828;4.700;2023-11-21T08:10:05;9.90;99.90
17152;DHT22;8691;50.828;4.700;2023-11-21T08:12:32;9.90;99.90
17152;DHT22;8691;50.828;4.700;2023-11-21T08:14:59;9.90;99.90
17152;DHT22;8691;50.828;4.700;2023-11-21T08:17:26;9.90;99.90
17152;DHT22;8691;50.828;4.700;2023-11-21T08:19:52;9.90;99.90
17152;DHT22;8691;50.828;4.700;2023-11-21T08:22:19;9.90;99.90
17152;DHT22;8691;50.828;4.700;2023-11-21T08:24:46;10.00;99.90
17152;DHT22;8691;50.828;4.700;2023-11-21T08:27:13;10.00;99.90
17152;DHT22;8691;50.828;4.700;2023-11-21T08:29:40;10.00;99.90
17152;DHT22;8691;50.828;4.700;2023-11-21T08:32:07;10.10;99.90
17152;DHT22;8691;50.828;4.700;2023-11-21T08:34:34;10.10;99.90
17152;DHT22;8691;50.828;4.700;2023-11-21T08:37:01;10.20;99.90
17152;DHT22;8691;50.828;4.700;2023-11-21T08:39:28;10.20;99.90
17152;DHT22;8691;50.828;4.700;2023-11-21T08:41:55;10.20;99.90
17152;DHT22;8691;50.828;4.700;2023-11-21T08:44:22;10.20;99.90
17152;DHT22;8691;50.828;4.700;2023-11-21T08:46:50;10.20;99.90
17152;DHT22;8691;50.828;4.700;2023-11-21T08:49:18;10.20;99.90
17152;DHT22;8691;50.828;4.700;2023-11-21T08:51:45;10.20;99.90
17152;DHT22;8691;50.828;4.700;2023-11-21T08:54:11;10.20;99.90
17152;DHT22;8691;50.828;4.700;2023-11-21T08:56:38;10.20;99.90
17152;DHT22;8691;50.828;4.700;2023-11-21T08:59:06;10.30;99.90
17152;DHT22;8691;50.828;4.700;2023-11-21T09:01:33;10.40;99.90
17152;DHT22;8691;50.828;4.700;2023-11-21T09:04:00;10.40;99.90
17152;DHT22;8691;50.828;4.700;2023-11-21T09:06:27;10.40;99.90
17152;DHT22;8691;50.828;4.700;2023-11-21T09:08:54;10.50;99.90
17152;DHT22;8691;50.828;4.700;2023-11-21T09:11:21;10.60;99.90
17152;DHT22;8691;50.828;4.700;2023-11-21T09:13:48;10.60;99.90
17152;DHT22;8691;50.828;4.700;2023-11-21T09:16:15;10.60;99.90
17152;DHT22;8691;50.828;4.700;2023-11-21T09:18:42;10.70;99.90
17152;DHT22;8691;50.828;4.700;2023-11-21T09:21:09;10.70;99.90
17152;DHT22;8691;50.828;4.700;2023-11-21T09:23:35;10.80;99.90
17152;DHT22;8691;50.828;4.700;2023-11-21T09:26:02;10.90;99.90
17152;DHT22;8691;50.828;4.700;2023-11-21T09:28:29;10.90;99.90
17152;DHT22;8691;50.828;4.700;2023-11-21T09:30:56;11.00;99.90
17152;DHT22;8691;50.828;4.700;2023-11-21T09:33:24;11.00;99.90
17152;DHT22;8691;50.828;4.700;2023-11-21T09:35:52;11.10;99.90
17152;DHT22;8691;50.828;4.700;2023-11-21T09:38:19;11.10;99.90
17152;DHT22;8691;50.828;4.700;2023-11-21T09:40:45;11.10;99.90
17152;DHT22;8691;50.828;4.700;2023-11-21T09:43:18;11.20;99.90
17152;DHT22;8691;50.828;4.700;2023-11-21T09:45:55;11.30;99.90
17152;DHT22;8691;50.828;4.700;2023-11-21T09:48:15;11.30;99.90
17152;DHT22;8691;50.828;4.700;2023-11-21T09:50:42;11.30;99.90
17152;DHT22;8691;50.828;4.700;2023-11-21T09:53:13;11.40;99.90
17152;DHT22;8691;50.828;4.700;2023-11-21T09:55:38;11.50;99.90
17152;DHT22;8691;50.828;4.700;2023-11-21T09:58:04;11.40;99.90
17152;DHT22;8691;50.828;4.700;2023-11-21T10:00:35;11.10;99.90
17152;DHT22;8691;50.828;4.700;2023-11-21T10:03:02;11.10;99.90
17152;DHT22;8691;50.828;4.700;2023-11-21T10:05:29;11.10;99.90
17152;DHT22;8691;50.828;4.700;2023-11-21T10:07:56;11.10;99.90
17152;DHT22;8691;50.828;4.700;2023-11-21T10:10:23;11.10;99.90
17152;DHT22;8691;50.828;4.700;2023-11-21T10:12:51;11.20;99.90
17152;DHT22;8691;50.828;4.700;2023-11-21T10:15:21;11.30;99.90
17152;DHT22;8691;50.828;4.700;2023-11-21T10:17:47;11.40;99.90
17152;DHT22;8691;50.828;4.700;2023-11-21T10:20:14;11.40;99.90
17152;DHT22;8691;50.828;4.700;2023-11-21T10:22:41;11.50;99.90
17152;DHT22;8691;50.828;4.700;2023-11-21T10:25:10;11.60;99.90
17152;DHT22;8691;50.828;4.700;2023-11-21T10:27:37;11.50;99.90
17152;DHT22;8691;50.828;4.700;2023-11-21T10:30:07;11.40;99.90
17152;DHT22;8691;50.828;4.700;2023-11-21T10:32:33;11.40;99.90
17152;DHT22;8691;50.828;4.700;2023-11-21T10:35:00;11.30;99.90
17152;DHT22;8691;50.828;4.700;2023-11-21T10:37:27;11.20;99.90
17152;DHT22;8691;50.828;4.700;2023-11-21T10:40:00;11.10;99.90
17152;DHT22;8691;50.828;4.700;2023-11-21T10:42:27;11.10;99.90
17152;DHT22;8691;50.828;4.700;2023-11-21T10:44:54;11.10;99.90
17152;DHT22;8691;50.828;4.700;2023-11-21T10:47:20;11.10;99.90
17152;DHT22;8691;50.828;4.700;2023-11-21T10:49:51;11.10;99.90
17152;DHT22;8691;50.828;4.700;2023-11-21T10:52:18;11.20;99.90
17152;DHT22;8691;50.828;4.700;2023-11-21T10:54:45;11.20;99.90
17152;DHT22;8691;50.828;4.700;2023-11-21T10:57:11;11.20;99.90
17152;DHT22;8691;50.828;4.700;2023-11-21T10:59:38;11.30;99.90
17152;DHT22;8691;50.828;4.700;2023-11-21T11:02:10;11.30;99.90
17152;DHT22;8691;50.828;4.700;2023-11-21T11:04:32;11.30;99.90
17152;DHT22;8691;50.828;4.700;2023-11-21T11:07:02;11.40;99.90
17152;DHT22;8691;50.828;4.700;2023-11-21T11:09:26;11.40;99.90
17152;DHT22;8691;50.828;4.700;2023-11-21T11:11:53;11.40;99.90
17152;DHT22;8691;50.828;4.700;2023-11-21T11:14:20;11.40;99.90
17152;DHT22;8691;50.828;4.700;2023-11-21T11:16:47;11.40;99.90
17152;DHT22;8691;50.828;4.700;2023-11-21T11:19:14;11.30;99.90
17152;DHT22;8691;50.828;4.700;2023-11-21T11:26:48;11.40;99.90
17152;DHT22;8691;50.828;4.700;2023-11-21T11:29:34;11.50;99.90
17152;DHT22;8691;50.828;4.700;2023-11-21T11:32:08;11.50;99.90
17152;DHT22;8691;50.828;4.700;2023-11-21T11:34:34;11.40;99.90
17152;DHT22;8691;50.828;4.700;2023-11-21T11:37:01;11.30;99.90
17152;DHT22;8691;50.828;4.700;2023-11-21T11:39:34;11.30;99.90
17152;DHT22;8691;50.828;4.700;2023-11-21T11:41:58;11.20;99.90
17152;DHT22;8691;50.828;4.700;2023-11-21T11:47:22;11.20;99.90
17152;DHT22;8691;50.828;4.700;2023-11-21T11:50:03;11.20;99.90
17152;DHT22;8691;50.828;4.700;2023-11-21T11:52:36;11.20;99.90
17152;DHT22;8691;50.828;4.700;2023-11-21T11:55:02;11.20;99.90
17152;DHT22;8691;50.828;4.700;2023-11-21T11:57:32;11.20;99.90
17152;DHT22;8691;50.828;4.700;2023-11-21T12:00:07;11.20;99.90
17152;DHT22;8691;50.828;4.700;2023-11-21T12:02:34;11.20;99.90
17152;DHT22;8691;50.828;4.700;2023-11-21T12:05:01;11.30;99.90
17152;DHT22;8691;50.828;4.700;2023-11-21T12:07:38;11.20;99.90
17152;DHT22;8691;50.828;4.700;2023-11-21T12:09:56;11.50;99.90
17152;DHT22;8691;50.828;4.700;2023-11-21T12:12:23;11.40;99.90
17152;DHT22;8691;50.828;4.700;2023-11-21T12:14:50;11.50;99.90
17152;DHT22;8691;50.828;4.700;2023-11-21T12:17:17;11.60;99.90
17152;DHT22;8691;50.828;4.700;2023-11-21T12:19:44;11.80;99.90
17152;DHT22;8691;50.828;4.700;2023-11-21T12:22:12;11.90;99.90
17152;DHT22;8691;50.828;4.700;2023-11-21T12:24:39;11.90;99.90
17152;DHT22;8691;50.828;4.700;2023-11-21T12:27:06;11.90;99.90
17152;DHT22;8691;50.828;4.700;2023-11-21T12:29:33;12.10;99.90
17152;DHT22;8691;50.828;4.700;2023-11-21T12:32:00;12.20;99.90
17152;DHT22;8691;50.828;4.700;2023-11-21T12:34:27;12.30;99.90
17152;DHT22;8691;50.828;4.700;2023-11-21T12:36:54;12.40;99.90
17152;DHT22;8691;50.828;4.700;2023-11-21T12:39:22;12.40;99.90
17152;DHT22;8691;50.828;4.700;2023-11-21T12:41:48;12.50;99.90
17152;DHT22;8691;50.828;4.700;2023-11-21T12:44:15;12.60;99.90
17152;DHT22;8691;50.828;4.700;2023-11-21T12:46:42;12.70;99.90
17152;DHT22;8691;50.828;4.700;2023-11-21T12:49:10;12.70;99.90
17152;DHT22;8691;50.828;4.700;2023-11-21T12:51:36;12.70;99.90
17152;DHT22;8691;50.828;4.700;2023-11-21T12:54:02;12.70;99.90
17152;DHT22;8691;50.828;4.700;2023-11-21T12:56:29;12.70;99.90
17152;DHT22;8691;50.828;4.700;2023-11-21T12:58:57;12.50;99.90
17152;DHT22;8691;50.828;4.700;2023-11-21T13:01:25;12.50;99.90
17152;DHT22;8691;50.828;4.700;2023-11-21T13:03:52;12.50;99.90
17152;DHT22;8691;50.828;4.700;2023-11-21T13:06:18;12.40;99.90
17152;DHT22;8691;50.828;4.700;2023-11-21T13:08:45;12.40;99.90
17152;DHT22;8691;50.828;4.700;2023-11-21T13:11:12;12.30;99.90
17152;DHT22;8691;50.828;4.700;2023-11-21T13:13:40;12.20;99.90
17152;DHT22;8691;50.828;4.700;2023-11-21T13:16:06;12.20;99.90
17152;DHT22;8691;50.828;4.700;2023-11-21T13:18:33;12.10;99.90
17152;DHT22;8691;50.828;4.700;2023-11-21T13:21:04;11.90;99.90
17152;DHT22;8691;50.828;4.700;2023-11-21T13:23:34;11.90;99.90
17152;DHT22;8691;50.828;4.700;2023-11-21T13:25:58;12.00;99.90
17152;DHT22;8691;50.828;4.700;2023-11-21T13:28:25;11.90;99.90
17152;DHT22;8691;50.828;4.700;2023-11-21T13:30:52;12.00;99.90
17152;DHT22;8691;50.828;4.700;2023-11-21T13:33:21;12.10;99.90
17152;DHT22;8691;50.828;4.700;2023-11-21T13:35:48;12.10;99.90
17152;DHT22;8691;50.828;4.700;2023-11-21T13:38:15;12.10;99.90
17152;DHT22;8691;50.828;4.700;2023-11-21T13:40:49;12.20;99.90
17152;DHT22;8691;50.828;4.700;2023-11-21T13:43:18;12.20;99.90
17152;DHT22;8691;50.828;4.700;2023-11-21T13:45:45;12.20;99.90
17152;DHT22;8691;50.828;4.700;2023-11-21T13:48:12;12.20;99.90
17152;DHT22;8691;50.828;4.700;2023-11-21T13:50:42;12.20;99.90
17152;DHT22;8691;50.828;4.700;2023-11-21T13:53:06;12.10;99.90
17152;DHT22;8691;50.828;4.700;2023-11-21T13:55:35;11.90;99.90
17152;DHT22;8691;50.828;4.700;2023-11-21T13:58:02;11.80;99.90
17152;DHT22;8691;50.828;4.700;2023-11-21T14:00:29;11.70;99.90
17152;DHT22;8691;50.828;4.700;2023-11-21T14:03:11;11.70;99.90
17152;DHT22;8691;50.828;4.700;2023-11-21T14:05:38;11.70;99.90
17152;DHT22;8691;50.828;4.700;2023-11-21T14:08:04;11.70;99.90
17152;DHT22;8691;50.828;4.700;2023-11-21T14:10:31;11.60;99.90
17152;DHT22;8691;50.828;4.700;2023-11-21T14:13:04;11.50;99.90
17152;DHT22;8691;50.828;4.700;2023-11-21T14:15:32;11.50;99.90
17152;DHT22;8691;50.828;4.700;2023-11-21T14:17:59;11.60;99.90
17152;DHT22;8691;50.828;4.700;2023-11-21T14:20:26;11.60;99.90
17152;DHT22;8691;50.828;4.700;2023-11-21T14:22:53;11.60;99.90
17152;DHT22;8691;50.828;4.700;2023-11-21T14:25:20;11.60;99.90
17152;DHT22;8691;50.828;4.700;2023-11-21T14:27:47;11.80;99.90
17152;DHT22;8691;50.828;4.700;2023-11-21T14:30:14;11.80;99.90
17152;DHT22;8691;50.828;4.700;2023-11-21T14:32:42;11.80;99.90
17152;DHT22;8691;50.828;4.700;2023-11-21T14:35:09;11.80;99.90
17152;DHT22;8691;50.828;4.700;2023-11-21T14:37:36;11.70;99.90
17152;DHT22;8691;50.828;4.700;2023-11-21T14:40:03;11.70;99.90
17152;DHT22;8691;50.828;4.700;2023-11-21T14:42:30;11.70;99.90
17152;DHT22;8691;50.828;4.700;2023-11-21T14:44:57;11.70;99.90
17152;DHT22;8691;50.828;4.700;2023-11-21T14:47:24;11.70;99.90
17152;DHT22;8691;50.828;4.700;2023-11-21T14:49:51;11.70;99.90
17152;DHT22;8691;50.828;4.700;2023-11-21T14:52:21;11.60;99.90
17152;DHT22;8691;50.828;4.700;2023-11-21T14:55:06;11.70;99.90
17152;DHT22;8691;50.828;4.700;2023-11-21T14:57:51;11.70;99.90
17152;DHT22;8691;50.828;4.700;2023-11-21T15:00:18;11.70;99.90
17152;DHT22;8691;50.828;4.700;2023-11-21T15:03:00;11.60;99.90
17152;DHT22;8691;50.828;4.700;2023-11-21T15:05:27;11.60;99.90
17152;DHT22;8691;50.828;4.700;2023-11-21T15:07:54;11.50;99.90
17152;DHT22;8691;50.828;4.700;2023-11-21T15:10:24;11.40;99.90
17152;DHT22;8691;50.828;4.700;2023-11-21T15:12:50;11.40;99.90
17152;DHT22;8691;50.828;4.700;2023-11-21T15:15:17;11.40;99.90
17152;DHT22;8691;50.828;4.700;2023-11-21T15:17:44;11.30;99.90
17152;DHT22;8691;50.828;4.700;2023-11-21T15:20:12;11.30;99.90
17152;DHT22;8691;50.828;4.700;2023-11-21T15:22:38;11.30;99.90
17152;DHT22;8691;50.828;4.700;2023-11-21T15:25:05;11.30;99.90
17152;DHT22;8691;50.828;4.700;2023-11-21T15:27:32;11.20;99.90
17152;DHT22;8691;50.828;4.700;2023-11-21T15:29:59;11.30;99.90
17152;DHT22;8691;50.828;4.700;2023-11-21T15:32:26;11.20;99.90
17152;DHT22;8691;50.828;4.700;2023-11-21T15:34:54;11.10;99.90
17152;DHT22;8691;50.828;4.700;2023-11-21T15:37:21;11.10;99.90
17152;DHT22;8691;50.828;4.700;2023-11-21T15:39:48;11.00;99.90
17152;DHT22;8691;50.828;4.700;2023-11-21T15:42:15;11.10;99.90
17152;DHT22;8691;50.828;4.700;2023-11-21T15:44:43;11.00;99.90
17152;DHT22;8691;50.828;4.700;2023-11-21T15:47:09;11.00;99.90
17152;DHT22;8691;50.828;4.700;2023-11-21T15:49:36;11.00;99.90
17152;DHT22;8691;50.828;4.700;2023-11-21T15:52:04;11.10;99.90
17152;DHT22;8691;50.828;4.700;2023-11-21T15:54:31;11.10;99.90
17152;DHT22;8691;50.828;4.700;2023-11-21T15:56:58;11.10;99.90
17152;DHT22;8691;50.828;4.700;2023-11-21T15:59:25;11.00;99.90
17152;DHT22;8691;50.828;4.700;2023-11-21T16:01:51;11.10;99.90
17152;DHT22;8691;50.828;4.700;2023-11-21T16:04:18;11.00;99.90